Bismarck, North Dakota
Current Conditions -  °F | °C
As of 5:26 PM on Thursday 27 Nov 2014 (Local Time) from KBIS Reporting Station
Light Snow Light Snow  
Wind Chill: -6°   Ceiling: 2000
Heat Index: 12°   Visibility: 3mi
Dew Point:   Wind: 18mph
Humidity: 84%   Direction: 140°SE
Pressure: 30"   Gusts: NA
Location:  46.81°N, 100.77°W
Report Text: KBIS 272326Z 14016KT 3SM -SN BR FEW009 OVC020 M11/M13 A3000 RMK AO2 UPB09E11SNE09B11 P0000 T11111133
Loading
Personal Weather Stations






























Interactive Weather Map New forecast layout! Learn more

10-Day Weather Forecast

Advertisements
Track Severe Weather on mobile